Colfax, California
Current Conditions -  °F | °C
As of 2:20 PM on Saturday 25 Oct 2014 (Local Time) from KGOO Reporting Station
Overcast Overcast  
Wind Chill: 46°   Ceiling: 100
Heat Index: 48°   Visibility: 1mi
Dew Point: 48°   Wind: 5mph
Humidity: 100%   Direction: 150°SSE
Pressure: 30.11"   Gusts: NA
Location:  39.1°N, 120.95°W
Report Text: KGOO 252120Z AUTO 15004KT 1SM OVC001 09/09 A3011 RMK AO1
Loading
Personal Weather Stations






























Interactive Weather Map
Tropical Storm Tracking
New forecast layout! Learn more

10-Day Weather Forecast

Advertisements
Track Severe Weather on mobile